Pagrindinis puslapis
METAR-TAF:

METAR-TAF

Oro uostai :

Qurayyat, Saudo Arabija

platuma: 31-24N, ilguma: 037-16E, Aukštis: 509 m

Dabartinis oras

Ataskaita buvo paskelbta 1 valandą ir 0 minutes, ne 12:00 UTC
Vėjas 8 kt iš Vakarų
Temperatūra 36°C
Drėgmė 12%
Slėgis 1013 hPa
Matomumas 10 km arba daugiau
nėra debesų žemiau 1500 m ir nėra kamuolinių lietaus debesų

METAR: OEGT 191200Z 27008KT CAVOK 36/02 Q1013 NOSIG

Laikas: 16:00 (13:00 UTC)

Prognozė

Ataskaita buvo paskelbta 2 valandos ir 0 minutes, ne 11:00 UTC
Prognozė galioja nuo 19 metu 12 UTC su 20 metu 18 UTC
Vėjas 10 kt iš Šiaurės/Šiaurės Vakarų
Matomumas 10 km arba daugiau
nėra debesų žemiau 1500 m ir nėra kamuolinių lietaus debesų

TAF: OEGT 191100Z 1912/2018 34010KT CAVOK

Orai ataskaitas ir orų prognozės (METAR, TAF).

turimą stotys yra geltonos ir raudonos taškus žemėlapyje.

Perkelti pele per norėdami pamatyti stoties vardą.

Tada spustelėkite, norėdami matyti oro stebėjimo ir prognozės.

Norėdami pakeisti žemėlapį: spustelėkite ant žalios mygtukų su juodo kryžiaus žemyn,; žalią mygtuką su brūkšneliu, jei norite nutolinti; arba žalių rodyklių gretimoms žemėlapius.


METAR-TAF: